Thunder radar more information blitzortung!


Radar de pluja more information rain snow radar


Visita la nostra xarxa de llocs de meteo:

Template documentation
and downloads

And another site



No particular awareness of the weather is required.    There are no Weather-warnings

Pagina Historial Weather Underground text

Diari Resum Octubre 1, 2017 Unitats:  Tant    Imperial   Mètric
« Previous Dia
SegĂźent Dia »
Diari Setmana Mensual Anual Personalitzada
  Maxima: Minima: Media:
Temperatura: 69.3 °F /  20.7 °C 61.3 °F /  16.3 °C 65.5 °F /  18.6 °C
Punt de rosada: 61.2 °F /  16.2 °C 56.3 °F /  13.5 °C 59.4 °F /  15.2 °C
Humitat: 92 % 74 % 81 %
Wind Speed: 8.1 mph /  13.0 km/h - 2.5 mph /  4.1 km/h
RĂ fegues de vent: 8.1 mph /  13.0 km/h - -
Vent:- - South
Pression baro: 30.2 in /  1023.9 hPa 30.2 in /  1020.9 hPa -
Precipitacions: 0 in /  0.0 mm    
Historical Graphs
 
 
Dades de taula per Octubre 1, 2017
Temps Temperatura Punt de rosada Pression baro Vent Wind Speed RĂ fegues de vent Humitat Rainfall Rate (Hourly)
00:03 62.4 °F /  16.9 °C 56.5 °F /  13.6 °C 30.2 in /  1021.9 hPa NNW 1.2 mph /  1.9 km/h 1.2 mph /  1.9 km/h 81 % 0 in /  0.0 mm
00:08 62.2 °F /  16.8 °C 56.3 °F /  13.5 °C 30.2 in /  1021.9 hPa NE 2.3 mph /  3.7 km/h   81 % 0 in /  0.0 mm
00:13 62.2 °F /  16.8 °C 56.3 °F /  13.5 °C 30.2 in /  1021.9 hPa NNE 1.2 mph /  1.9 km/h 1.2 mph /  1.9 km/h 81 % 0 in /  0.0 mm
00:18 62.2 °F /  16.8 °C 56.3 °F /  13.5 °C 30.2 in /  1021.9 hPa ENE 1.2 mph /  1.9 km/h 1.2 mph /  1.9 km/h 81 % 0 in /  0.0 mm
00:23 62.1 °F /  16.7 °C 56.5 °F /  13.6 °C 30.2 in /  1021.9 hPa ENE 2.3 mph /  3.7 km/h 2.3 mph /  3.7 km/h 82 % 0 in /  0.0 mm
00:24 62.1 °F /  16.7 °C 56.5 °F /  13.6 °C 30.2 in /  1021.9 hPa NNW 2.3 mph /  3.7 km/h 2.3 mph /  3.7 km/h 82 % 0 in /  0.0 mm
00:29 62.1 °F /  16.7 °C 56.5 °F /  13.6 °C 30.2 in /  1021.9 hPa WNW 1.2 mph /  1.9 km/h 1.2 mph /  1.9 km/h 82 % 0 in /  0.0 mm
03:40 61.7 °F /  16.5 °C 57.6 °F /  14.2 °C 30.2 in /  1021.9 hPa Calm     86 % 0 in /  0.0 mm
03:50 61.9 °F /  16.6 °C 57.6 °F /  14.2 °C 30.2 in /  1021.9 hPa NE 1 mph /  1.6 km/h 1 mph /  1.6 km/h 86 % 0 in /  0.0 mm
04:00 62.1 °F /  16.7 °C 57.7 °F /  14.3 °C 30.2 in /  1021.9 hPa West 1 mph /  1.6 km/h 1 mph /  1.6 km/h 86 % 0 in /  0.0 mm
04:10 62.2 °F /  16.8 °C 57.9 °F /  14.4 °C 30.2 in /  1021.9 hPa NNW 1 mph /  1.6 km/h 2 mph /  3.2 km/h 86 % 0 in /  0.0 mm
04:20 62.4 °F /  16.9 °C 57.7 °F /  14.3 °C 30.2 in /  1021.9 hPa Calm   1 mph /  1.6 km/h 85 % 0 in /  0.0 mm
04:30 62.6 °F /  17.0 °C 57.9 °F /  14.4 °C 30.2 in /  1021.9 hPa Calm   1 mph /  1.6 km/h 85 % 0 in /  0.0 mm
04:40 62.8 °F /  17.1 °C 58.3 °F /  14.6 °C 30.2 in /  1021.9 hPa ENE 2 mph /  3.2 km/h 2 mph /  3.2 km/h 85 % 0 in /  0.0 mm
04:50 63 °F /  17.2 °C 58.5 °F /  14.7 °C 30.2 in /  1021.9 hPa Calm   2 mph /  3.2 km/h 85 % 0 in /  0.0 mm
05:00 63 °F /  17.2 °C 57.7 °F /  14.3 °C 30.2 in /  1020.9 hPa ENE 1 mph /  1.6 km/h 2 mph /  3.2 km/h 83 % 0 in /  0.0 mm
05:10 63.3 °F /  17.4 °C 58.1 °F /  14.5 °C 30.2 in /  1021.9 hPa Calm   2 mph /  3.2 km/h 83 % 0 in /  0.0 mm
05:20 63.5 °F /  17.5 °C 57.9 °F /  14.4 °C 30.2 in /  1021.9 hPa Calm   2 mph /  3.2 km/h 82 % 0 in /  0.0 mm
10:22 64.2 °F /  17.9 °C 58.3 °F /  14.6 °C 30.2 in /  1022.9 hPa Calm     81 % 0 in /  0.0 mm
10:27 64.6 °F /  18.1 °C 58.6 °F /  14.8 °C 30.2 in /  1022.9 hPa ENE 1.4 mph /  2.3 km/h 1.4 mph /  2.3 km/h 81 % 0 in /  0.0 mm
10:32 64.6 °F /  18.1 °C 58.3 °F /  14.6 °C 30.2 in /  1021.9 hPa Calm     80 % 0 in /  0.0 mm
10:37 64.9 °F /  18.3 °C 58.6 °F /  14.8 °C 30.2 in /  1021.9 hPa Calm     80 % 0 in /  0.0 mm
10:42 65.1 °F /  18.4 °C 58.8 °F /  14.9 °C 30.2 in /  1021.9 hPa ENE 1.4 mph /  2.3 km/h   80 % 0 in /  0.0 mm
10:47 65.3 °F /  18.5 °C 58.6 °F /  14.8 °C 30.2 in /  1021.9 hPa ESE 2.3 mph /  3.7 km/h 2.3 mph /  3.7 km/h 79 % 0 in /  0.0 mm
10:52 65.3 °F /  18.5 °C 59 °F /  15.0 °C 30.2 in /  1021.9 hPa East 2.3 mph /  3.7 km/h 2.3 mph /  3.7 km/h 80 % 0 in /  0.0 mm
10:57 65.5 °F /  18.6 °C 58.8 °F /  14.9 °C 30.2 in /  1021.9 hPa ENE 2.3 mph /  3.7 km/h 2.3 mph /  3.7 km/h 79 % 0 in /  0.0 mm
11:02 65.7 °F /  18.7 °C 59.4 °F /  15.2 °C 30.2 in /  1021.9 hPa East 3.1 mph /  5.0 km/h 3.1 mph /  5.0 km/h 80 % 0 in /  0.0 mm
11:07 65.7 °F /  18.7 °C 59.4 °F /  15.2 °C 30.2 in /  1021.9 hPa SE 2.3 mph /  3.7 km/h 2.3 mph /  3.7 km/h 80 % 0 in /  0.0 mm
11:12 65.7 °F /  18.7 °C 59.4 °F /  15.2 °C 30.2 in /  1021.9 hPa ENE 3.5 mph /  5.6 km/h 3.5 mph /  5.6 km/h 80 % 0 in /  0.0 mm
11:17 65.7 °F /  18.7 °C 59.4 °F /  15.2 °C 30.2 in /  1021.9 hPa East 2.3 mph /  3.7 km/h 2.3 mph /  3.7 km/h 80 % 0 in /  0.0 mm
11:22 65.8 °F /  18.8 °C 59.5 °F /  15.3 °C 30.2 in /  1021.9 hPa ESE 3.1 mph /  5.0 km/h 3.1 mph /  5.0 km/h 80 % 0 in /  0.0 mm
11:27 65.7 °F /  18.7 °C 59.4 °F /  15.2 °C 30.2 in /  1021.9 hPa ESE 4 mph /  6.4 km/h 4 mph /  6.4 km/h 80 % 0 in /  0.0 mm
11:32 65.7 °F /  18.7 °C 59.4 °F /  15.2 °C 30.2 in /  1021.9 hPa ENE 2.4 mph /  3.9 km/h 2.4 mph /  3.9 km/h 80 % 0 in /  0.0 mm
11:37 66 °F /  18.9 °C 60.1 °F /  15.6 °C 30.2 in /  1021.9 hPa ENE 4.6 mph /  7.4 km/h 4.6 mph /  7.4 km/h 81 % 0 in /  0.0 mm
11:42 66.2 °F /  19.0 °C 59.7 °F /  15.4 °C 30.2 in /  1021.9 hPa NNE 2.9 mph /  4.7 km/h 2.9 mph /  4.7 km/h 80 % 0 in /  0.0 mm
11:47 66.2 °F /  19.0 °C 59.7 °F /  15.4 °C 30.2 in /  1022.9 hPa ENE 3.6 mph /  5.8 km/h 3.6 mph /  5.8 km/h 80 % 0 in /  0.0 mm
11:52 66 °F /  18.9 °C 60.1 °F /  15.6 °C 30.2 in /  1022.9 hPa ESE 4.6 mph /  7.4 km/h 4.6 mph /  7.4 km/h 81 % 0 in /  0.0 mm
11:53 66.2 °F /  19.0 °C 59.7 °F /  15.4 °C 30.2 in /  1022.9 hPa ESE 4.9 mph /  7.9 km/h 4.9 mph /  7.9 km/h 80 % 0 in /  0.0 mm
11:58 66.4 °F /  19.1 °C 60.1 °F /  15.6 °C 30.2 in /  1022.9 hPa NNE 4.6 mph /  7.4 km/h 4.6 mph /  7.4 km/h 80 % 0 in /  0.0 mm
12:03 66.2 °F /  19.0 °C 59.7 °F /  15.4 °C 30.2 in /  1022.9 hPa ENE 4.6 mph /  7.4 km/h 4.6 mph /  7.4 km/h 80 % 0 in /  0.0 mm
12:08 66 °F /  18.9 °C 60.4 °F /  15.8 °C 30.2 in /  1022.9 hPa ENE 4.6 mph /  7.4 km/h 4.6 mph /  7.4 km/h 82 % 0 in /  0.0 mm
12:13 66.2 °F /  19.0 °C 60.3 °F /  15.7 °C 30.2 in /  1022.9 hPa ESE 6.2 mph /  10.0 km/h 6.2 mph /  10.0 km/h 81 % 0 in /  0.0 mm
12:18 66.4 °F /  19.1 °C 60.6 °F /  15.9 °C 30.2 in /  1022.9 hPa ENE 3.8 mph /  6.1 km/h 3.8 mph /  6.1 km/h 82 % 0 in /  0.0 mm
12:23 66.4 °F /  19.1 °C 60.4 °F /  15.8 °C 30.2 in /  1022.9 hPa ESE 3.8 mph /  6.1 km/h 3.8 mph /  6.1 km/h 81 % 0 in /  0.0 mm
12:28 66.2 °F /  19.0 °C 60.3 °F /  15.7 °C 30.2 in /  1022.9 hPa ENE 6.9 mph /  11.1 km/h 6.9 mph /  11.1 km/h 81 % 0 in /  0.0 mm
12:33 65.8 °F /  18.8 °C 60.3 °F /  15.7 °C 30.2 in /  1022.9 hPa East 5.8 mph /  9.3 km/h 5.8 mph /  9.3 km/h 82 % 0 in /  0.0 mm
12:38 66 °F /  18.9 °C 60.4 °F /  15.8 °C 30.2 in /  1022.9 hPa SE 8.1 mph /  13.0 km/h 8.1 mph /  13.0 km/h 82 % 0 in /  0.0 mm
12:43 66.2 °F /  19.0 °C 60.3 °F /  15.7 °C 30.2 in /  1022.9 hPa ESE 3.8 mph /  6.1 km/h 3.8 mph /  6.1 km/h 81 % 0 in /  0.0 mm
12:48 66.4 °F /  19.1 °C 60.1 °F /  15.6 °C 30.2 in /  1021.9 hPa ESE 6.9 mph /  11.1 km/h 6.9 mph /  11.1 km/h 80 % 0 in /  0.0 mm
12:53 66.6 °F /  19.2 °C 60.3 °F /  15.7 °C 30.2 in /  1021.9 hPa ESE 4.3 mph /  6.9 km/h 4.3 mph /  6.9 km/h 80 % 0 in /  0.0 mm
12:58 66.9 °F /  19.4 °C 60.4 °F /  15.8 °C 30.2 in /  1021.9 hPa South 4.6 mph /  7.4 km/h 4.6 mph /  7.4 km/h 80 % 0 in /  0.0 mm
13:03 67.6 °F /  19.8 °C 61 °F /  16.1 °C 30.2 in /  1021.9 hPa South 2.3 mph /  3.7 km/h 2.3 mph /  3.7 km/h 79 % 0 in /  0.0 mm
13:08 68.4 °F /  20.2 °C 61.2 °F /  16.2 °C 30.2 in /  1021.9 hPa East 3.5 mph /  5.6 km/h 3.5 mph /  5.6 km/h 78 % 0 in /  0.0 mm
13:13 67.8 °F /  19.9 °C 60.6 °F /  15.9 °C 30.2 in /  1021.9 hPa SE 4.6 mph /  7.4 km/h 4.6 mph /  7.4 km/h 78 % 0 in /  0.0 mm
13:18 68 °F /  20.0 °C 61 °F /  16.1 °C 30.2 in /  1021.9 hPa East 4.9 mph /  7.9 km/h 4.9 mph /  7.9 km/h 78 % 0 in /  0.0 mm
13:23 67.8 °F /  19.9 °C 60.6 °F /  15.9 °C 30.2 in /  1021.9 hPa SSE 5.8 mph /  9.3 km/h 5.8 mph /  9.3 km/h 78 % 0 in /  0.0 mm
13:28 68 °F /  20.0 °C 61 °F /  16.1 °C 30.2 in /  1021.9 hPa ENE 5.8 mph /  9.3 km/h 5.8 mph /  9.3 km/h 78 % 0 in /  0.0 mm
13:33 68 °F /  20.0 °C 60.4 °F /  15.8 °C 30.2 in /  1021.9 hPa ESE 7.6 mph /  12.2 km/h 7.6 mph /  12.2 km/h 77 % 0 in /  0.0 mm
13:38 68.4 °F /  20.2 °C 61 °F /  16.1 °C 30.2 in /  1021.9 hPa ESE 5.8 mph /  9.3 km/h 5.8 mph /  9.3 km/h 77 % 0 in /  0.0 mm
13:43 68.2 °F /  20.1 °C 60.6 °F /  15.9 °C 30.2 in /  1021.9 hPa East 8.1 mph /  13.0 km/h 8.1 mph /  13.0 km/h 77 % 0 in /  0.0 mm
13:48 68 °F /  20.0 °C 60.4 °F /  15.8 °C 30.2 in /  1021.9 hPa ESE 5.9 mph /  9.5 km/h 5.9 mph /  9.5 km/h 77 % 0 in /  0.0 mm
13:53 68 °F /  20.0 °C 60.4 °F /  15.8 °C 30.2 in /  1021.9 hPa SSE 6.9 mph /  11.1 km/h 6.9 mph /  11.1 km/h 77 % 0 in /  0.0 mm
13:58 68.4 °F /  20.2 °C 61 °F /  16.1 °C 30.2 in /  1021.9 hPa ESE 2.3 mph /  3.7 km/h 2.3 mph /  3.7 km/h 77 % 0 in /  0.0 mm
14:03 68.7 °F /  20.4 °C 60.8 °F /  16.0 °C 30.2 in /  1021.9 hPa SE 3.6 mph /  5.8 km/h 3.6 mph /  5.8 km/h 76 % 0 in /  0.0 mm
14:08 68.2 °F /  20.1 °C 60.3 °F /  15.7 °C 30.2 in /  1021.9 hPa ESE 2.4 mph /  3.9 km/h 2.4 mph /  3.9 km/h 76 % 0 in /  0.0 mm
14:13 68.2 °F /  20.1 °C 60.3 °F /  15.7 °C 30.2 in /  1021.9 hPa ESE 2.4 mph /  3.9 km/h 2.4 mph /  3.9 km/h 76 % 0 in /  0.0 mm
14:18 68 °F /  20.0 °C 60.3 °F /  15.7 °C 30.2 in /  1021.9 hPa South 3.5 mph /  5.6 km/h 3.5 mph /  5.6 km/h 76 % 0 in /  0.0 mm
14:23 68.4 °F /  20.2 °C 61 °F /  16.1 °C 30.2 in /  1021.9 hPa WSW 2.9 mph /  4.7 km/h 2.9 mph /  4.7 km/h 77 % 0 in /  0.0 mm
14:28 68.2 °F /  20.1 °C 61.2 °F /  16.2 °C 30.2 in /  1021.9 hPa SW 2.6 mph /  4.2 km/h 2.6 mph /  4.2 km/h 78 % 0 in /  0.0 mm
14:33 68.2 °F /  20.1 °C 61.2 °F /  16.2 °C 30.2 in /  1021.9 hPa WSW 2.3 mph /  3.7 km/h 2.3 mph /  3.7 km/h 78 % 0 in /  0.0 mm
14:38 68.4 °F /  20.2 °C 61.2 °F /  16.2 °C 30.2 in /  1021.9 hPa SW 3.5 mph /  5.6 km/h 3.5 mph /  5.6 km/h 78 % 0 in /  0.0 mm
14:43 68.4 °F /  20.2 °C 61.2 °F /  16.2 °C 30.2 in /  1021.9 hPa SW 2.9 mph /  4.7 km/h 2.9 mph /  4.7 km/h 78 % 0 in /  0.0 mm
14:48 68.4 °F /  20.2 °C 61 °F /  16.1 °C 30.2 in /  1021.9 hPa East 2.3 mph /  3.7 km/h 2.3 mph /  3.7 km/h 77 % 0 in /  0.0 mm
14:53 68.4 °F /  20.2 °C 61 °F /  16.1 °C 30.2 in /  1021.9 hPa ENE 3.3 mph /  5.3 km/h 3.3 mph /  5.3 km/h 77 % 0 in /  0.0 mm
14:58 68 °F /  20.0 °C 60.4 °F /  15.8 °C 30.2 in /  1021.9 hPa ENE 4.6 mph /  7.4 km/h 4.6 mph /  7.4 km/h 77 % 0 in /  0.0 mm
15:03 67.6 °F /  19.8 °C 60.4 °F /  15.8 °C 30.2 in /  1022.9 hPa East 4.6 mph /  7.4 km/h 4.6 mph /  7.4 km/h 78 % 0 in /  0.0 mm
15:08 67.5 °F /  19.7 °C 60.1 °F /  15.6 °C 30.2 in /  1022.9 hPa ESE 5.8 mph /  9.3 km/h 5.8 mph /  9.3 km/h 77 % 0 in /  0.0 mm
15:13 67.5 °F /  19.7 °C 60.1 °F /  15.6 °C 30.2 in /  1022.9 hPa ESE 7.1 mph /  11.4 km/h 7.1 mph /  11.4 km/h 77 % 0 in /  0.0 mm
15:18 67.5 °F /  19.7 °C 60.1 °F /  15.6 °C 30.2 in /  1021.9 hPa East 5.8 mph /  9.3 km/h 5.8 mph /  9.3 km/h 77 % 0 in /  0.0 mm
15:23 67.6 °F /  19.8 °C 60.3 °F /  15.7 °C 30.2 in /  1021.9 hPa ESE 6.9 mph /  11.1 km/h 6.9 mph /  11.1 km/h 77 % 0 in /  0.0 mm
15:33 67.8 °F /  19.9 °C 60.3 °F /  15.7 °C 30.2 in /  1021.9 hPa NE 2.9 mph /  4.7 km/h 2.9 mph /  4.7 km/h 77 % 0 in /  0.0 mm
15:34 67.8 °F /  19.9 °C 60.3 °F /  15.7 °C 30.2 in /  1021.9 hPa ESE 3.5 mph /  5.6 km/h 3.5 mph /  5.6 km/h 77 % 0 in /  0.0 mm
15:39 67.8 °F /  19.9 °C 60.3 °F /  15.7 °C 30.2 in /  1021.9 hPa East 5.8 mph /  9.3 km/h 5.8 mph /  9.3 km/h 77 % 0 in /  0.0 mm
15:44 67.6 °F /  19.8 °C 59.7 °F /  15.4 °C 30.2 in /  1021.9 hPa ESE 5.8 mph /  9.3 km/h 5.8 mph /  9.3 km/h 76 % 0 in /  0.0 mm
15:49 67.6 °F /  19.8 °C 59.7 °F /  15.4 °C 30.2 in /  1021.9 hPa ENE 4.6 mph /  7.4 km/h 4.6 mph /  7.4 km/h 76 % 0 in /  0.0 mm
15:54 67.6 °F /  19.8 °C 59.7 °F /  15.4 °C 30.2 in /  1021.9 hPa ESE 5.8 mph /  9.3 km/h 5.8 mph /  9.3 km/h 76 % 0 in /  0.0 mm
15:59 67.6 °F /  19.8 °C 59.7 °F /  15.4 °C 30.2 in /  1021.9 hPa East 3.5 mph /  5.6 km/h 3.5 mph /  5.6 km/h 76 % 0 in /  0.0 mm
16:04 67.8 °F /  19.9 °C 60.1 °F /  15.6 °C 30.2 in /  1021.9 hPa SSE 4.6 mph /  7.4 km/h 4.6 mph /  7.4 km/h 76 % 0 in /  0.0 mm
16:09 67.8 °F /  19.9 °C 60.1 °F /  15.6 °C 30.2 in /  1021.9 hPa ESE 4.6 mph /  7.4 km/h 4.6 mph /  7.4 km/h 76 % 0 in /  0.0 mm
16:14 67.8 °F /  19.9 °C 60.1 °F /  15.6 °C 30.2 in /  1021.9 hPa SSE 2.3 mph /  3.7 km/h 2.3 mph /  3.7 km/h 76 % 0 in /  0.0 mm
16:19 68 °F /  20.0 °C 60.3 °F /  15.7 °C 30.2 in /  1021.9 hPa ESE 1.2 mph /  1.9 km/h   76 % 0 in /  0.0 mm
16:20 68.2 °F /  20.1 °C 60.3 °F /  15.7 °C 30.2 in /  1021.9 hPa WSW 1.2 mph /  1.9 km/h   76 % 0 in /  0.0 mm
16:25 68.4 °F /  20.2 °C 60.1 °F /  15.6 °C 30.2 in /  1021.9 hPa South 4.7 mph /  7.6 km/h 4.7 mph /  7.6 km/h 75 % 0 in /  0.0 mm
16:30 68.4 °F /  20.2 °C 60.1 °F /  15.6 °C 30.2 in /  1021.9 hPa WSW 3.5 mph /  5.6 km/h 3.5 mph /  5.6 km/h 75 % 0 in /  0.0 mm
16:35 68.9 °F /  20.5 °C 60.6 °F /  15.9 °C 30.2 in /  1021.9 hPa SW 1.2 mph /  1.9 km/h   75 % 0 in /  0.0 mm
16:40 69.3 °F /  20.7 °C 61 °F /  16.1 °C 30.2 in /  1021.9 hPa SE 2.3 mph /  3.7 km/h 2.3 mph /  3.7 km/h 75 % 0 in /  0.0 mm
16:45 69.3 °F /  20.7 °C 61 °F /  16.1 °C 30.2 in /  1021.9 hPa SW 2.4 mph /  3.9 km/h 2.4 mph /  3.9 km/h 75 % 0 in /  0.0 mm
16:50 69.1 °F /  20.6 °C 60.4 °F /  15.8 °C 30.2 in /  1021.9 hPa SSE 2.9 mph /  4.7 km/h 2.9 mph /  4.7 km/h 74 % 0 in /  0.0 mm
16:55 68.9 °F /  20.5 °C 60.3 °F /  15.7 °C 30.2 in /  1021.9 hPa SSE 4.6 mph /  7.4 km/h 4.6 mph /  7.4 km/h 74 % 0 in /  0.0 mm
17:00 68.7 °F /  20.4 °C 60.1 °F /  15.6 °C 30.2 in /  1021.9 hPa WSW 2.9 mph /  4.7 km/h 2.9 mph /  4.7 km/h 74 % 0 in /  0.0 mm
17:05 68.7 °F /  20.4 °C 60.1 °F /  15.6 °C 30.2 in /  1021.9 hPa SW 2.3 mph /  3.7 km/h   74 % 0 in /  0.0 mm
17:10 68.7 °F /  20.4 °C 60.1 °F /  15.6 °C 30.2 in /  1021.9 hPa SW 3.5 mph /  5.6 km/h 3.5 mph /  5.6 km/h 74 % 0 in /  0.0 mm
17:15 68.7 °F /  20.4 °C 60.1 °F /  15.6 °C 30.2 in /  1021.9 hPa South 3.1 mph /  5.0 km/h 3.1 mph /  5.0 km/h 74 % 0 in /  0.0 mm
17:20 68.7 °F /  20.4 °C 60.1 °F /  15.6 °C 30.2 in /  1021.9 hPa ESE 3.5 mph /  5.6 km/h 3.5 mph /  5.6 km/h 74 % 0 in /  0.0 mm
17:25 68.5 °F /  20.3 °C 59.9 °F /  15.5 °C 30.2 in /  1021.9 hPa South 1.6 mph /  2.6 km/h 1.6 mph /  2.6 km/h 74 % 0 in /  0.0 mm
17:30 68.5 °F /  20.3 °C 59.9 °F /  15.5 °C 30.2 in /  1021.9 hPa SSE 3.5 mph /  5.6 km/h   74 % 0 in /  0.0 mm
17:35 68.7 °F /  20.4 °C 60.1 °F /  15.6 °C 30.2 in /  1021.9 hPa SW 3.1 mph /  5.0 km/h 3.1 mph /  5.0 km/h 74 % 0 in /  0.0 mm
17:40 68.4 °F /  20.2 °C 59.7 °F /  15.4 °C 30.2 in /  1021.9 hPa WSW 3.5 mph /  5.6 km/h 3.5 mph /  5.6 km/h 74 % 0 in /  0.0 mm
17:45 68.4 °F /  20.2 °C 59.7 °F /  15.4 °C 30.2 in /  1021.9 hPa SSW 3.5 mph /  5.6 km/h   74 % 0 in /  0.0 mm
17:50 68.2 °F /  20.1 °C 59.5 °F /  15.3 °C 30.2 in /  1021.9 hPa SW 4.6 mph /  7.4 km/h 4.6 mph /  7.4 km/h 74 % 0 in /  0.0 mm
17:55 68 °F /  20.0 °C 59.4 °F /  15.2 °C 30.2 in /  1021.9 hPa SW 3.3 mph /  5.3 km/h 3.3 mph /  5.3 km/h 74 % 0 in /  0.0 mm
18:00 68 °F /  20.0 °C 59.4 °F /  15.2 °C 30.2 in /  1021.9 hPa SW 4.6 mph /  7.4 km/h 4.6 mph /  7.4 km/h 74 % 0 in /  0.0 mm
18:05 68 °F /  20.0 °C 59.7 °F /  15.4 °C 30.2 in /  1021.9 hPa SSW 3.1 mph /  5.0 km/h 3.1 mph /  5.0 km/h 75 % 0 in /  0.0 mm
18:10 67.8 °F /  19.9 °C 59.5 °F /  15.3 °C 30.2 in /  1021.9 hPa SW 3.5 mph /  5.6 km/h 3.5 mph /  5.6 km/h 75 % 0 in /  0.0 mm
18:15 67.8 °F /  19.9 °C 60.1 °F /  15.6 °C 30.2 in /  1021.9 hPa West 3.5 mph /  5.6 km/h 3.5 mph /  5.6 km/h 76 % 0 in /  0.0 mm
18:20 67.8 °F /  19.9 °C 60.1 °F /  15.6 °C 30.2 in /  1021.9 hPa WSW 2.3 mph /  3.7 km/h 2.3 mph /  3.7 km/h 76 % 0 in /  0.0 mm
18:25 67.6 °F /  19.8 °C 59.7 °F /  15.4 °C 30.2 in /  1021.9 hPa WSW 2.3 mph /  3.7 km/h 2.3 mph /  3.7 km/h 76 % 0 in /  0.0 mm
18:30 67.6 °F /  19.8 °C 59.7 °F /  15.4 °C 30.2 in /  1021.9 hPa SSW 2.3 mph /  3.7 km/h 2.3 mph /  3.7 km/h 76 % 0 in /  0.0 mm
18:35 67.5 °F /  19.7 °C 59.5 °F /  15.3 °C 30.2 in /  1021.9 hPa SSW 4.6 mph /  7.4 km/h 4.6 mph /  7.4 km/h 76 % 0 in /  0.0 mm
18:40 67.3 °F /  19.6 °C 59.5 °F /  15.3 °C 30.2 in /  1021.9 hPa SW 3.6 mph /  5.8 km/h 3.6 mph /  5.8 km/h 76 % 0 in /  0.0 mm
18:45 67.3 °F /  19.6 °C 59.5 °F /  15.3 °C 30.2 in /  1021.9 hPa SW 3.5 mph /  5.6 km/h 3.5 mph /  5.6 km/h 76 % 0 in /  0.0 mm
18:50 66.9 °F /  19.4 °C 59.5 °F /  15.3 °C 30.2 in /  1021.9 hPa WNW 3.5 mph /  5.6 km/h 3.5 mph /  5.6 km/h 77 % 0 in /  0.0 mm
18:55 66.7 °F /  19.3 °C 59.4 °F /  15.2 °C 30.2 in /  1021.9 hPa SW 3.5 mph /  5.6 km/h 3.5 mph /  5.6 km/h 77 % 0 in /  0.0 mm
19:00 66.6 °F /  19.2 °C 59.2 °F /  15.1 °C 30.2 in /  1021.9 hPa SW 4 mph /  6.4 km/h 4 mph /  6.4 km/h 77 % 0 in /  0.0 mm
19:05 66.6 °F /  19.2 °C 59.2 °F /  15.1 °C 30.2 in /  1021.9 hPa SW 3.5 mph /  5.6 km/h 3.5 mph /  5.6 km/h 77 % 0 in /  0.0 mm
19:10 66.4 °F /  19.1 °C 58.8 °F /  14.9 °C 30.2 in /  1021.9 hPa SW 2.4 mph /  3.9 km/h 2.4 mph /  3.9 km/h 77 % 0 in /  0.0 mm
19:15 66.4 °F /  19.1 °C 59.4 °F /  15.2 °C 30.2 in /  1021.9 hPa SW 3.5 mph /  5.6 km/h 3.5 mph /  5.6 km/h 78 % 0 in /  0.0 mm
19:20 66.2 °F /  19.0 °C 59.2 °F /  15.1 °C 30.2 in /  1021.9 hPa West 4.6 mph /  7.4 km/h 4.6 mph /  7.4 km/h 78 % 0 in /  0.0 mm
19:25 66.2 °F /  19.0 °C 59.2 °F /  15.1 °C 30.2 in /  1021.9 hPa WSW 3.6 mph /  5.8 km/h 3.6 mph /  5.8 km/h 78 % 0 in /  0.0 mm
19:30 66 °F /  18.9 °C 59.4 °F /  15.2 °C 30.2 in /  1021.9 hPa SW 4.6 mph /  7.4 km/h 4.6 mph /  7.4 km/h 79 % 0 in /  0.0 mm
19:35 66 °F /  18.9 °C 59.4 °F /  15.2 °C 30.2 in /  1021.9 hPa SW 2.4 mph /  3.9 km/h 2.4 mph /  3.9 km/h 79 % 0 in /  0.0 mm
19:40 65.8 °F /  18.8 °C 59.2 °F /  15.1 °C 30.2 in /  1021.9 hPa WSW 4.7 mph /  7.6 km/h 4.7 mph /  7.6 km/h 79 % 0 in /  0.0 mm
19:45 65.8 °F /  18.8 °C 59.2 °F /  15.1 °C 30.2 in /  1021.9 hPa SW 2.3 mph /  3.7 km/h 2.3 mph /  3.7 km/h 79 % 0 in /  0.0 mm
19:50 65.7 °F /  18.7 °C 59 °F /  15.0 °C 30.2 in /  1021.9 hPa SW 2.2 mph /  3.5 km/h 2.2 mph /  3.5 km/h 79 % 0 in /  0.0 mm
19:55 65.7 °F /  18.7 °C 59.4 °F /  15.2 °C 30.2 in /  1021.9 hPa WSW 1.6 mph /  2.6 km/h 1.6 mph /  2.6 km/h 80 % 0 in /  0.0 mm
20:00 65.5 °F /  18.6 °C 59.2 °F /  15.1 °C 30.2 in /  1021.9 hPa WSW 1.6 mph /  2.6 km/h   80 % 0 in /  0.0 mm
20:05 65.3 °F /  18.5 °C 59 °F /  15.0 °C 30.2 in /  1021.9 hPa SSW 2.3 mph /  3.7 km/h   80 % 0 in /  0.0 mm
20:10 65.3 °F /  18.5 °C 59 °F /  15.0 °C 30.2 in /  1021.9 hPa SSW 2.3 mph /  3.7 km/h 2.3 mph /  3.7 km/h 80 % 0 in /  0.0 mm
20:15 65.1 °F /  18.4 °C 58.8 °F /  14.9 °C 30.2 in /  1021.9 hPa SW 2.3 mph /  3.7 km/h 2.3 mph /  3.7 km/h 80 % 0 in /  0.0 mm
20:16 65.1 °F /  18.4 °C 58.8 °F /  14.9 °C 30.2 in /  1021.9 hPa SW 2.3 mph /  3.7 km/h 2.3 mph /  3.7 km/h 80 % 0 in /  0.0 mm
20:20 62.6 °F /  17.0 °C 59.4 °F /  15.2 °C 30.2 in /  1023.9 hPa Calm     89 % 0 in /  0.0 mm
20:21 64.9 °F /  18.3 °C 59 °F /  15.0 °C 30.2 in /  1021.9 hPa SSW 2.3 mph /  3.7 km/h 2.3 mph /  3.7 km/h 81 % 0 in /  0.0 mm
20:26 64.9 °F /  18.3 °C 59 °F /  15.0 °C 30.2 in /  1021.9 hPa SW 2.3 mph /  3.7 km/h 2.3 mph /  3.7 km/h 81 % 0 in /  0.0 mm
20:30 62.4 °F /  16.9 °C 59.2 °F /  15.1 °C 30.2 in /  1023.9 hPa Calm     89 % 0 in /  0.0 mm
20:31 64.8 °F /  18.2 °C 58.8 °F /  14.9 °C 30.2 in /  1021.9 hPa West 1.2 mph /  1.9 km/h 1.2 mph /  1.9 km/h 81 % 0 in /  0.0 mm
20:36 64.8 °F /  18.2 °C 58.8 °F /  14.9 °C 30.2 in /  1021.9 hPa SW 2.3 mph /  3.7 km/h 2.3 mph /  3.7 km/h 81 % 0 in /  0.0 mm
20:40 62.4 °F /  16.9 °C 59.2 °F /  15.1 °C 30.2 in /  1023.9 hPa Calm     89 % 0 in /  0.0 mm
20:41 64.6 °F /  18.1 °C 58.6 °F /  14.8 °C 30.2 in /  1021.9 hPa West 2.3 mph /  3.7 km/h 2.3 mph /  3.7 km/h 81 % 0 in /  0.0 mm
20:46 64.6 °F /  18.1 °C 59 °F /  15.0 °C 30.2 in /  1021.9 hPa SW 2.3 mph /  3.7 km/h 2.3 mph /  3.7 km/h 82 % 0 in /  0.0 mm
20:50 62.4 °F /  16.9 °C 59.2 °F /  15.1 °C 30.2 in /  1023.9 hPa Calm     89 % 0 in /  0.0 mm
20:51 64.4 °F /  18.0 °C 58.8 °F /  14.9 °C 30.2 in /  1021.9 hPa West 2.3 mph /  3.7 km/h 2.3 mph /  3.7 km/h 82 % 0 in /  0.0 mm
20:56 64.2 °F /  17.9 °C 58.6 °F /  14.8 °C 30.2 in /  1021.9 hPa SW 2.3 mph /  3.7 km/h 2.3 mph /  3.7 km/h 82 % 0 in /  0.0 mm
21:00 62.4 °F /  16.9 °C 59.4 °F /  15.2 °C 30.2 in /  1023.9 hPa Calm     90 % 0 in /  0.0 mm
21:01 64 °F /  17.8 °C 58.8 °F /  14.9 °C 30.2 in /  1022.9 hPa SW 1.2 mph /  1.9 km/h 1.2 mph /  1.9 km/h 83 % 0 in /  0.0 mm
21:06 63.9 °F /  17.7 °C 58.6 °F /  14.8 °C 30.2 in /  1022.9 hPa WSW 1.4 mph /  2.3 km/h 1.4 mph /  2.3 km/h 83 % 0 in /  0.0 mm
21:10 62.4 °F /  16.9 °C 59.4 °F /  15.2 °C 30.2 in /  1022.9 hPa Calm     90 % 0 in /  0.0 mm
21:11 63.7 °F /  17.6 °C 58.5 °F /  14.7 °C 30.2 in /  1022.9 hPa SW 2.3 mph /  3.7 km/h 2.3 mph /  3.7 km/h 83 % 0 in /  0.0 mm
21:16 63.7 °F /  17.6 °C 58.5 °F /  14.7 °C 30.2 in /  1022.9 hPa WSW 1.2 mph /  1.9 km/h 1.2 mph /  1.9 km/h 83 % 0 in /  0.0 mm
21:20 62.2 °F /  16.8 °C 59.4 °F /  15.2 °C 30.2 in /  1022.9 hPa Calm     90 % 0 in /  0.0 mm
21:21 63.5 °F /  17.5 °C 58.3 °F /  14.6 °C 30.2 in /  1022.9 hPa WSW 2.3 mph /  3.7 km/h 2.3 mph /  3.7 km/h 83 % 0 in /  0.0 mm
21:26 63.5 °F /  17.5 °C 58.6 °F /  14.8 °C 30.2 in /  1022.9 hPa WSW 2.3 mph /  3.7 km/h 2.3 mph /  3.7 km/h 84 % 0 in /  0.0 mm
21:30 62.2 °F /  16.8 °C 59.4 °F /  15.2 °C 30.2 in /  1023.9 hPa Calm     90 % 0 in /  0.0 mm
21:31 63.5 °F /  17.5 °C 58.6 °F /  14.8 °C 30.2 in /  1022.9 hPa WSW 2.4 mph /  3.9 km/h 2.4 mph /  3.9 km/h 84 % 0 in /  0.0 mm
21:36 63.5 °F /  17.5 °C 58.6 °F /  14.8 °C 30.2 in /  1022.9 hPa WSW 2.3 mph /  3.7 km/h 2.3 mph /  3.7 km/h 84 % 0 in /  0.0 mm
21:40 62.2 °F /  16.8 °C 59.4 °F /  15.2 °C 30.2 in /  1022.9 hPa Calm     90 % 0 in /  0.0 mm
21:41 63.5 °F /  17.5 °C 58.6 °F /  14.8 °C 30.2 in /  1022.9 hPa West 2.3 mph /  3.7 km/h 2.3 mph /  3.7 km/h 84 % 0 in /  0.0 mm
21:46 63.5 °F /  17.5 °C 58.6 °F /  14.8 °C 30.2 in /  1022.9 hPa WSW 2 mph /  3.2 km/h 2 mph /  3.2 km/h 84 % 0 in /  0.0 mm
21:50 62.1 °F /  16.7 °C 59.2 °F /  15.1 °C 30.2 in /  1022.9 hPa Calm     90 % 0 in /  0.0 mm
21:51 63.5 °F /  17.5 °C 58.6 °F /  14.8 °C 30.2 in /  1022.9 hPa WSW 2.3 mph /  3.7 km/h 2.3 mph /  3.7 km/h 84 % 0 in /  0.0 mm
21:56 63.3 °F /  17.4 °C 58.5 °F /  14.7 °C 30.2 in /  1022.9 hPa WSW 2.6 mph /  4.2 km/h 2.6 mph /  4.2 km/h 84 % 0 in /  0.0 mm
22:00 62.1 °F /  16.7 °C 59.2 °F /  15.1 °C 30.2 in /  1022.9 hPa Calm     90 % 0 in /  0.0 mm
22:01 63.3 °F /  17.4 °C 58.5 °F /  14.7 °C 30.2 in /  1022.9 hPa WSW 2.3 mph /  3.7 km/h 2.3 mph /  3.7 km/h 84 % 0 in /  0.0 mm
22:06 63.3 °F /  17.4 °C 58.6 °F /  14.8 °C 30.2 in /  1022.9 hPa West 2.3 mph /  3.7 km/h 2.3 mph /  3.7 km/h 85 % 0 in /  0.0 mm
22:10 61.9 °F /  16.6 °C 58.8 °F /  14.9 °C 30.2 in /  1022.9 hPa Calm     90 % 0 in /  0.0 mm
22:11 63.1 °F /  17.3 °C 58.6 °F /  14.8 °C 30.2 in /  1022.9 hPa West 2.2 mph /  3.5 km/h 2.2 mph /  3.5 km/h 85 % 0 in /  0.0 mm
22:16 63.1 °F /  17.3 °C 58.6 °F /  14.8 °C 30.2 in /  1022.9 hPa West 2.3 mph /  3.7 km/h 2.3 mph /  3.7 km/h 85 % 0 in /  0.0 mm
22:20 62.1 °F /  16.7 °C 59.4 °F /  15.2 °C 30.2 in /  1022.9 hPa Calm     91 % 0 in /  0.0 mm
22:21 63.1 °F /  17.3 °C 58.6 °F /  14.8 °C 30.2 in /  1022.9 hPa WSW 2.3 mph /  3.7 km/h 2.3 mph /  3.7 km/h 85 % 0 in /  0.0 mm
22:26 63.1 °F /  17.3 °C 58.6 °F /  14.8 °C 30.2 in /  1022.9 hPa WSW 1.6 mph /  2.6 km/h 1.6 mph /  2.6 km/h 85 % 0 in /  0.0 mm
22:30 62.1 °F /  16.7 °C 59.4 °F /  15.2 °C 30.2 in /  1022.9 hPa Calm     91 % 0 in /  0.0 mm
22:31 63.1 °F /  17.3 °C 58.6 °F /  14.8 °C 30.2 in /  1022.9 hPa WSW 2.3 mph /  3.7 km/h 2.3 mph /  3.7 km/h 85 % 0 in /  0.0 mm
22:36 63 °F /  17.2 °C 58.6 °F /  14.8 °C 30.2 in /  1022.9 hPa SW 1.2 mph /  1.9 km/h   86 % 0 in /  0.0 mm
22:40 62.2 °F /  16.8 °C 59.5 °F /  15.3 °C 30.2 in /  1022.9 hPa Calm     91 % 0 in /  0.0 mm
22:41 63 °F /  17.2 °C 58.6 °F /  14.8 °C 30.2 in /  1022.9 hPa West 1.2 mph /  1.9 km/h   86 % 0 in /  0.0 mm
22:46 63 °F /  17.2 °C 58.6 °F /  14.8 °C 30.2 in /  1022.9 hPa West 2.3 mph /  3.7 km/h 2.3 mph /  3.7 km/h 86 % 0 in /  0.0 mm
22:50 62.1 °F /  16.7 °C 59.4 °F /  15.2 °C 30.2 in /  1022.9 hPa Calm   3 mph /  4.8 km/h 91 % 0 in /  0.0 mm
22:51 63.1 °F /  17.3 °C 58.8 °F /  14.9 °C 30.2 in /  1022.9 hPa West 2.3 mph /  3.7 km/h 2.3 mph /  3.7 km/h 86 % 0 in /  0.0 mm
22:56 63.1 °F /  17.3 °C 58.8 °F /  14.9 °C 30.2 in /  1022.9 hPa West 2.3 mph /  3.7 km/h 2.3 mph /  3.7 km/h 86 % 0 in /  0.0 mm
23:00 62.1 °F /  16.7 °C 59.4 °F /  15.2 °C 30.2 in /  1022.9 hPa Calm   2 mph /  3.2 km/h 91 % 0 in /  0.0 mm
23:01 63.1 °F /  17.3 °C 58.8 °F /  14.9 °C 30.2 in /  1022.9 hPa West 1.2 mph /  1.9 km/h 1.4 mph /  2.3 km/h 86 % 0 in /  0.0 mm
23:06 63.1 °F /  17.3 °C 59.2 °F /  15.1 °C 30.2 in /  1022.9 hPa Calm     87 % 0 in /  0.0 mm
23:10 61.7 °F /  16.5 °C 59 °F /  15.0 °C 30.2 in /  1022.9 hPa Calm     91 % 0 in /  0.0 mm
23:11 63.1 °F /  17.3 °C 59.2 °F /  15.1 °C 30.2 in /  1022.9 hPa Calm     87 % 0 in /  0.0 mm
23:16 63.1 °F /  17.3 °C 59.2 °F /  15.1 °C 30.2 in /  1023.9 hPa Calm     87 % 0 in /  0.0 mm
23:20 61.5 °F /  16.4 °C 58.8 °F /  14.9 °C 30.2 in /  1022.9 hPa Calm     91 % 0 in /  0.0 mm
23:21 63.1 °F /  17.3 °C 59.2 °F /  15.1 °C 30.2 in /  1023.9 hPa Calm     87 % 0 in /  0.0 mm
23:26 63.1 °F /  17.3 °C 59.2 °F /  15.1 °C 30.2 in /  1023.9 hPa Calm     87 % 0 in /  0.0 mm
23:30 61.3 °F /  16.3 °C 58.6 °F /  14.8 °C 30.2 in /  1022.9 hPa Calm   1 mph /  1.6 km/h 91 % 0 in /  0.0 mm
23:31 63 °F /  17.2 °C 59 °F /  15.0 °C 30.2 in /  1022.9 hPa Calm     87 % 0 in /  0.0 mm
23:36 62.8 °F /  17.1 °C 58.8 °F /  14.9 °C 30.2 in /  1022.9 hPa Calm     87 % 0 in /  0.0 mm
23:40 61.5 °F /  16.4 °C 59.2 °F /  15.1 °C 30.2 in /  1022.9 hPa Calm   1 mph /  1.6 km/h 92 % 0 in /  0.0 mm
23:41 62.8 °F /  17.1 °C 58.8 °F /  14.9 °C 30.2 in /  1022.9 hPa Calm     87 % 0 in /  0.0 mm
23:46 62.8 °F /  17.1 °C 58.8 °F /  14.9 °C 30.2 in /  1023.9 hPa Calm     87 % 0 in /  0.0 mm
23:50 61.3 °F /  16.3 °C 59 °F /  15.0 °C 30.2 in /  1022.9 hPa Calm   1 mph /  1.6 km/h 92 % 0 in /  0.0 mm
23:51 62.6 °F /  17.0 °C 58.6 °F /  14.8 °C 30.2 in /  1023.9 hPa Calm     87 % 0 in /  0.0 mm
23:56 62.6 °F /  17.0 °C 58.6 °F /  14.8 °C 30.2 in /  1023.9 hPa Calm     87 % 0 in /  0.0 mm
Meteo Sesrovires
Elogis d' Weather Underground - 3.5 mb

Guio original per  Jim McMurry - jmcmurry@mwt.net Adaptat per a la plantilla per  Wim van der Kuil - Leuven-Template.eu

Trobareu la nostra informacio del temps tambe a:

Weather Underground

AWEKAS